createdAt,value
2023-04-16T00:02:08.608Z,15.23
2023-04-16T00:04:36.631Z,17.00
2023-04-16T00:07:04.794Z,15.47
2023-04-16T00:09:34.112Z,11.67
2023-04-16T00:12:02.011Z,16.53
2023-04-16T00:14:31.040Z,16.63
2023-04-16T00:16:59.077Z,10.60
2023-04-16T00:19:26.973Z,16.53
2023-04-16T00:21:54.876Z,15.13
2023-04-16T00:24:22.685Z,14.47
2023-04-16T00:26:51.866Z,15.03
2023-04-16T00:29:19.901Z,14.47
2023-04-16T00:31:47.754Z,10.33
2023-04-16T00:34:15.662Z,16.03
2023-04-16T00:36:43.535Z,11.33
2023-04-16T00:39:11.574Z,14.77
2023-04-16T00:41:39.700Z,14.50
2023-04-16T00:44:09.067Z,9.47
2023-04-16T00:46:38.293Z,13.13
2023-04-16T00:49:06.394Z,14.57
2023-04-16T00:51:36.132Z,13.47
2023-04-16T00:54:05.210Z,10.17
2023-04-16T00:56:34.237Z,14.40
2023-04-16T00:59:02.322Z,8.93
2023-04-16T01:01:31.728Z,13.57
2023-04-16T01:03:59.779Z,13.17
2023-04-16T01:06:28.423Z,13.60
2023-04-16T01:08:56.409Z,12.87
2023-04-16T01:11:24.197Z,15.17
2023-04-16T01:13:52.080Z,13.23
2023-04-16T01:16:20.206Z,10.73
2023-04-16T01:18:49.600Z,12.23
2023-04-16T01:21:18.809Z,13.13
2023-04-16T01:23:46.776Z,10.47
2023-04-16T01:26:14.740Z,13.17
2023-04-16T01:28:42.907Z,13.17
2023-04-16T01:31:10.802Z,14.73
2023-04-16T01:33:48.649Z,14.77
2023-04-16T01:36:18.041Z,9.83
2023-04-16T01:38:46.983Z,10.17
2023-04-16T01:41:14.913Z,14.23
2023-04-16T01:43:42.981Z,12.97
2023-04-16T01:46:15.267Z,14.13
2023-04-16T01:48:43.390Z,15.00
2023-04-16T01:51:11.350Z,14.50
2023-04-16T01:53:40.582Z,13.87
2023-04-16T01:56:08.631Z,12.57
2023-04-16T01:58:36.767Z,13.73
2023-04-16T02:01:05.838Z,14.00
2023-04-16T02:03:34.625Z,12.17
2023-04-16T02:06:02.675Z,12.63
2023-04-16T02:08:30.690Z,13.87
2023-04-16T02:11:00.279Z,12.73
2023-04-16T02:13:28.285Z,12.90
2023-04-16T02:15:56.106Z,11.97
2023-04-16T02:18:43.802Z,14.23
2023-04-16T02:21:13.839Z,13.10
2023-04-16T02:23:42.386Z,13.30
2023-04-16T02:26:13.484Z,14.70
2023-04-16T02:28:41.783Z,14.83
2023-04-16T02:31:11.807Z,15.23
2023-04-16T02:33:44.588Z,12.70
2023-04-16T02:36:12.884Z,13.80
2023-04-16T02:38:40.758Z,14.63
2023-04-16T02:41:09.070Z,10.17
2023-04-16T02:43:38.203Z,8.73
2023-04-16T02:46:06.611Z,9.93
2023-04-16T02:48:34.661Z,14.67
2023-04-16T02:51:02.613Z,14.87
2023-04-16T02:53:30.844Z,12.43
2023-04-16T02:55:58.856Z,15.00
2023-04-16T02:58:27.388Z,13.43
2023-04-16T03:00:56.679Z,13.80
2023-04-16T03:03:24.900Z,14.70
2023-04-16T03:05:52.883Z,11.00
2023-04-16T03:08:20.740Z,14.87
2023-04-16T03:10:48.717Z,13.00
2023-04-16T03:13:16.578Z,13.23
2023-04-16T03:15:50.367Z,13.43
2023-04-16T03:18:19.602Z,14.23
2023-04-16T03:20:47.417Z,13.00
2023-04-16T03:23:15.431Z,14.43
2023-04-16T03:25:46.500Z,11.93
2023-04-16T03:28:18.558Z,11.37
2023-04-16T03:30:52.072Z,12.90
2023-04-16T03:33:22.949Z,12.77
2023-04-16T03:35:58.765Z,13.30
2023-04-16T03:38:29.807Z,9.40
2023-04-16T03:40:59.961Z,11.63
2023-04-16T03:43:28.368Z,11.13
2023-04-16T03:45:56.425Z,12.27
2023-04-16T03:48:26.645Z,14.77
2023-04-16T03:50:55.400Z,11.77
2023-04-16T03:53:23.492Z,13.40
2023-04-16T03:55:52.222Z,13.07
2023-04-16T03:58:21.373Z,14.13
2023-04-16T04:00:49.340Z,10.83
2023-04-16T04:03:18.892Z,14.17
2023-04-16T04:05:51.129Z,14.23
2023-04-16T04:08:27.202Z,15.27
2023-04-16T04:10:56.760Z,14.77
2023-04-16T04:13:26.044Z,15.07
2023-04-16T04:15:54.804Z,14.60
2023-04-16T04:18:23.785Z,15.03
2023-04-16T04:20:53.366Z,13.00
2023-04-16T04:23:25.055Z,15.80
2023-04-16T04:25:52.963Z,14.33
2023-04-16T04:28:20.771Z,15.23
2023-04-16T04:30:48.960Z,14.77
2023-04-16T04:33:16.934Z,15.90
2023-04-16T04:35:44.800Z,15.10
2023-04-16T04:38:16.169Z,15.70
2023-04-16T04:40:44.458Z,16.33
2023-04-16T04:43:12.527Z,15.77
2023-04-16T04:45:41.057Z,15.73
2023-04-16T04:48:08.895Z,15.60
2023-04-16T04:50:37.959Z,15.87
2023-04-16T04:53:09.892Z,15.90
2023-04-16T04:55:40.600Z,16.87
2023-04-16T04:58:09.149Z,16.70
2023-04-16T05:00:37.889Z,16.10
2023-04-16T05:03:07.786Z,16.47
2023-04-16T05:05:35.622Z,17.03
2023-04-16T05:08:03.652Z,15.87
2023-04-16T05:10:31.561Z,17.13
2023-04-16T05:13:00.905Z,17.27
2023-04-16T05:15:28.786Z,17.90
2023-04-16T05:17:56.834Z,17.73
2023-04-16T05:20:25.022Z,17.47
2023-04-16T05:22:52.977Z,17.83
2023-04-16T05:25:20.954Z,19.07
2023-04-16T05:27:48.831Z,17.83
2023-04-16T05:30:18.028Z,17.33
2023-04-16T05:32:45.983Z,17.37
2023-04-16T05:35:15.937Z,17.77
2023-04-16T05:37:45.160Z,17.27
2023-04-16T05:40:14.861Z,17.33
2023-04-16T05:42:42.764Z,17.10
2023-04-16T05:45:11.581Z,17.30
2023-04-16T05:47:40.857Z,16.73
2023-04-16T05:50:09.286Z,16.83
2023-04-16T05:52:37.168Z,17.37
2023-04-16T05:55:05.388Z,17.00
2023-04-16T05:57:34.418Z,16.90
2023-04-16T06:00:02.357Z,16.87
2023-04-16T06:02:41.773Z,17.67
2023-04-16T06:05:10.070Z,17.10
2023-04-16T06:07:37.954Z,15.17
2023-04-16T06:10:06.618Z,17.83
2023-04-16T06:12:34.438Z,18.37
2023-04-16T06:15:03.957Z,17.80
2023-04-16T06:17:31.789Z,17.60
2023-04-16T06:20:01.118Z,16.37
2023-04-16T06:22:29.107Z,17.90
2023-04-16T06:24:56.994Z,15.77
2023-04-16T06:27:24.992Z,18.03
2023-04-16T06:29:52.826Z,16.80
2023-04-16T06:32:20.893Z,13.70
2023-04-16T06:34:48.692Z,18.33
2023-04-16T06:37:17.975Z,18.70
2023-04-16T06:39:45.878Z,17.90
2023-04-16T06:42:13.726Z,18.60
2023-04-16T06:44:41.643Z,18.70
2023-04-16T06:47:09.820Z,19.00
2023-04-16T06:49:39.393Z,18.47
2023-04-16T06:52:07.294Z,19.47
2023-04-16T06:54:36.952Z,18.67
2023-04-16T06:57:05.008Z,18.27
2023-04-16T06:59:32.808Z,17.30
2023-04-16T07:02:00.890Z,18.47
2023-04-16T07:04:28.866Z,17.73
2023-04-16T07:06:58.299Z,17.87
2023-04-16T07:09:26.717Z,18.43
2023-04-16T07:11:56.246Z,17.50
2023-04-16T07:14:24.186Z,14.20
2023-04-16T07:16:52.126Z,18.10
2023-04-16T07:19:20.016Z,17.10
2023-04-16T07:21:47.908Z,17.23
2023-04-16T07:24:15.810Z,17.70
2023-04-16T07:26:43.683Z,10.93
2023-04-16T07:29:13.454Z,17.00
2023-04-16T07:31:41.373Z,14.43
2023-04-16T07:34:09.382Z,15.97
2023-04-16T07:36:37.277Z,17.27
2023-04-16T07:39:05.691Z,15.57
2023-04-16T07:41:33.646Z,15.70
2023-04-16T07:44:01.776Z,10.53
2023-04-16T07:46:45.669Z,15.33
2023-04-16T07:49:14.587Z,16.13
2023-04-16T07:51:42.443Z,15.47
2023-04-16T07:54:11.078Z,16.17
2023-04-16T07:56:38.951Z,16.27
2023-04-16T07:59:21.104Z,16.13
2023-04-16T08:01:53.519Z,15.37
2023-04-16T08:04:25.041Z,15.57
2023-04-16T08:06:53.994Z,14.53
2023-04-16T08:09:23.873Z,15.23
2023-04-16T08:11:51.870Z,16.40
2023-04-16T08:14:19.665Z,14.53
2023-04-16T08:16:47.507Z,16.07
2023-04-16T08:19:16.754Z,16.37
2023-04-16T08:21:44.751Z,15.73
2023-04-16T08:24:12.589Z,15.73
2023-04-16T08:26:40.669Z,14.70
2023-04-16T08:29:08.682Z,15.07
2023-04-16T08:31:36.845Z,15.20
2023-04-16T08:34:04.700Z,16.50
2023-04-16T08:36:33.896Z,15.67
2023-04-16T08:39:01.701Z,15.60
2023-04-16T08:41:31.888Z,16.13
2023-04-16T08:44:01.696Z,14.40
2023-04-16T08:46:32.391Z,12.73
2023-04-16T08:49:01.516Z,15.10
2023-04-16T08:51:34.971Z,15.40
2023-04-16T08:54:09.439Z,15.70
2023-04-16T08:56:38.231Z,10.30
2023-04-16T08:59:06.300Z,12.80
2023-04-16T09:01:34.752Z,15.00
2023-04-16T09:04:03.888Z,12.17
2023-04-16T09:06:33.981Z,13.50
2023-04-16T09:09:04.606Z,13.53
2023-04-16T09:11:34.888Z,10.50
2023-04-16T09:14:02.914Z,15.23
2023-04-16T09:16:35.190Z,10.90
2023-04-16T09:19:03.810Z,13.37
2023-04-16T09:21:32.082Z,15.87
2023-04-16T09:24:01.194Z,14.80
2023-04-16T09:26:29.263Z,15.80
2023-04-16T09:28:58.561Z,16.00
2023-04-16T09:31:27.127Z,12.53
2023-04-16T09:34:05.343Z,14.00
2023-04-16T09:36:33.903Z,9.20
2023-04-16T09:39:02.341Z,11.13
2023-04-16T09:41:31.830Z,12.73
2023-04-16T09:44:02.430Z,14.40
2023-04-16T09:46:32.639Z,12.43
2023-04-16T09:49:06.284Z,11.23
2023-04-16T09:51:38.373Z,9.93
2023-04-16T09:54:06.670Z,12.07
2023-04-16T09:56:34.643Z,12.93
2023-04-16T09:59:04.189Z,14.00
2023-04-16T10:01:32.952Z,13.13
2023-04-16T10:04:00.936Z,12.37
2023-04-16T10:06:31.136Z,12.00
2023-04-16T10:08:59.037Z,15.67
2023-04-16T10:11:27.019Z,15.43
2023-04-16T10:13:56.515Z,11.37
2023-04-16T10:16:26.739Z,15.33
2023-04-16T10:18:55.162Z,13.50
2023-04-16T10:21:23.451Z,13.67
2023-04-16T10:23:53.379Z,12.73
2023-04-16T10:26:23.051Z,13.67
2023-04-16T10:28:51.241Z,13.00
2023-04-16T10:31:19.141Z,14.73
2023-04-16T10:33:48.744Z,12.97
2023-04-16T10:36:18.040Z,14.23
2023-04-16T10:38:47.917Z,12.77
2023-04-16T10:41:15.889Z,14.10
2023-04-16T10:43:46.091Z,14.43
2023-04-16T10:46:22.479Z,15.50
2023-04-16T10:48:54.227Z,13.73
2023-04-16T10:51:28.032Z,10.00
2023-04-16T10:53:57.119Z,14.60
2023-04-16T10:56:26.121Z,15.47
2023-04-16T10:58:55.951Z,13.07
2023-04-16T11:01:32.469Z,14.07
2023-04-16T11:04:03.337Z,14.73
2023-04-16T11:06:32.051Z,9.13
2023-04-16T11:08:59.986Z,13.30
2023-04-16T11:11:29.969Z,7.90
2023-04-16T11:13:57.993Z,14.03
2023-04-16T11:16:27.176Z,12.97
2023-04-16T11:18:57.107Z,13.83
2023-04-16T11:21:26.834Z,9.23
2023-04-16T11:23:54.847Z,13.47
2023-04-16T11:26:28.494Z,13.30
2023-04-16T11:28:57.414Z,11.63
2023-04-16T11:31:27.071Z,13.20
2023-04-16T11:33:57.661Z,13.00
2023-04-16T11:36:27.703Z,11.33
2023-04-16T11:39:03.773Z,12.17
2023-04-16T11:41:31.755Z,12.60
2023-04-16T11:43:59.578Z,12.47
2023-04-16T11:46:39.601Z,12.50
2023-04-16T11:49:08.684Z,12.20
2023-04-16T11:51:42.114Z,12.67
2023-04-16T11:54:12.008Z,9.90
2023-04-16T11:56:46.535Z,10.80
2023-04-16T11:59:15.889Z,10.90
2023-04-16T12:01:46.758Z,13.63
2023-04-16T12:04:15.804Z,13.20
2023-04-16T12:07:12.553Z,13.43
2023-04-16T12:09:42.221Z,12.73
2023-04-16T12:12:30.393Z,12.47
2023-04-16T12:14:59.601Z,12.17
2023-04-16T12:17:27.523Z,7.50
2023-04-16T12:19:58.592Z,9.60
2023-04-16T12:22:34.102Z,9.77
2023-04-16T12:25:04.952Z,13.00
2023-04-16T12:27:46.728Z,13.73
2023-04-16T12:30:15.955Z,13.27
2023-04-16T12:32:44.847Z,13.17
2023-04-16T12:35:13.378Z,11.43
2023-04-16T12:37:42.671Z,12.77
2023-04-16T12:40:11.547Z,12.63
2023-04-16T12:42:39.408Z,13.87
2023-04-16T12:45:08.143Z,12.07
2023-04-16T12:47:35.965Z,11.23
2023-04-16T12:50:03.937Z,9.73
2023-04-16T12:52:31.846Z,13.90
2023-04-16T12:55:02.503Z,13.60
2023-04-16T12:57:30.372Z,13.00
2023-04-16T12:59:58.536Z,12.97
2023-04-16T13:02:27.012Z,13.67
2023-04-16T13:04:55.626Z,13.27
2023-04-16T13:07:24.209Z,13.63
2023-04-16T13:09:52.190Z,13.07
2023-04-16T13:12:21.454Z,13.47
2023-04-16T13:14:49.267Z,13.60
2023-04-16T13:17:17.259Z,14.90
2023-04-16T13:19:45.637Z,14.03
2023-04-16T13:22:13.830Z,14.40
2023-04-16T13:24:41.637Z,13.27
2023-04-16T13:27:09.738Z,10.23
2023-04-16T13:29:38.989Z,12.80
2023-04-16T13:32:07.388Z,13.10
2023-04-16T13:34:35.744Z,13.10
2023-04-16T13:37:03.727Z,13.53
2023-04-16T13:39:31.555Z,24.30
2023-04-16T13:42:00.035Z,13.60
2023-04-16T13:44:27.853Z,13.43
2023-04-16T13:46:57.460Z,12.27
2023-04-16T13:49:25.460Z,12.67
2023-04-16T13:51:53.415Z,17.83
2023-04-16T13:54:21.292Z,14.37
2023-04-16T13:56:51.021Z,13.37
2023-04-16T13:59:20.112Z,16.43
2023-04-16T14:01:47.998Z,16.03
2023-04-16T14:04:17.234Z,18.50
2023-04-16T14:06:45.204Z,12.93
2023-04-16T14:09:13.181Z,13.27
2023-04-16T14:11:41.373Z,13.50
2023-04-16T14:14:09.212Z,14.43
2023-04-16T14:16:37.176Z,14.17
2023-04-16T14:19:05.065Z,13.90
2023-04-16T14:21:34.454Z,13.30
2023-04-16T14:24:02.296Z,13.07
2023-04-16T14:26:30.244Z,13.73
2023-04-16T14:28:58.111Z,13.03
2023-04-16T14:31:26.053Z,13.93
2023-04-16T14:33:53.889Z,13.33
2023-04-16T14:36:21.804Z,14.07
2023-04-16T14:38:50.978Z,13.83
2023-04-16T14:41:18.954Z,16.80
2023-04-16T14:43:46.782Z,12.27
2023-04-16T14:46:17.585Z,17.53
2023-04-16T14:48:45.915Z,14.13
2023-04-16T14:51:13.728Z,15.03
2023-04-16T14:53:41.602Z,12.43
2023-04-16T14:56:13.472Z,13.90
2023-04-16T14:58:42.736Z,14.30
2023-04-16T15:01:10.910Z,13.83
2023-04-16T15:03:38.822Z,14.83
2023-04-16T15:06:07.045Z,13.70
2023-04-16T15:08:35.690Z,13.53
2023-04-16T15:11:04.045Z,14.20
2023-04-16T15:13:34.523Z,13.73
2023-04-16T15:16:02.544Z,13.10
2023-04-16T15:18:30.486Z,12.83
2023-04-16T15:20:58.582Z,13.20
2023-04-16T15:23:26.549Z,13.07
2023-04-16T15:25:54.516Z,13.43
2023-04-16T15:28:22.485Z,13.70
2023-04-16T15:30:52.901Z,13.93
2023-04-16T15:33:22.145Z,13.97
2023-04-16T15:35:51.387Z,7.67
2023-04-16T15:38:20.959Z,14.13
2023-04-16T15:40:49.031Z,14.90
2023-04-16T15:43:17.176Z,13.37
2023-04-16T15:45:45.051Z,13.93
2023-04-16T15:48:14.304Z,15.77
2023-04-16T15:50:42.367Z,15.37
2023-04-16T15:53:10.178Z,15.27
2023-04-16T15:55:38.262Z,15.07
2023-04-16T15:58:06.361Z,14.93
2023-04-16T16:00:34.227Z,14.87
2023-04-16T16:03:03.459Z,15.60
2023-04-16T16:05:32.880Z,15.20
2023-04-16T16:08:01.542Z,14.80
2023-04-16T16:10:29.499Z,15.17
2023-04-16T16:13:01.785Z,15.20
2023-04-16T16:15:30.153Z,14.47
2023-04-16T16:17:58.612Z,12.03
2023-04-16T16:20:27.344Z,14.87
2023-04-16T16:22:56.924Z,14.03
2023-04-16T16:25:25.128Z,13.73
2023-04-16T16:27:53.314Z,15.07
2023-04-16T16:30:21.345Z,15.40
2023-04-16T16:32:49.273Z,12.63
2023-04-16T16:35:17.201Z,9.60
2023-04-16T16:37:45.079Z,15.00
2023-04-16T16:40:14.322Z,15.00
2023-04-16T16:42:42.340Z,14.70
2023-04-16T16:45:11.482Z,14.50
2023-04-16T16:47:39.353Z,14.53
2023-04-16T16:50:11.267Z,8.03
2023-04-16T16:52:39.252Z,16.60
2023-04-16T16:55:10.842Z,15.20
2023-04-16T16:57:40.252Z,12.20
2023-04-16T17:00:13.955Z,12.60
2023-04-16T17:02:42.133Z,14.10
2023-04-16T17:05:10.822Z,14.63
2023-04-16T17:07:38.709Z,15.00
2023-04-16T17:10:07.455Z,13.93
2023-04-16T17:12:36.239Z,15.00
2023-04-16T17:15:06.348Z,15.43
2023-04-16T17:17:34.271Z,13.17
2023-04-16T17:20:04.311Z,13.57
2023-04-16T17:22:32.255Z,14.73
2023-04-16T17:25:00.294Z,15.03
2023-04-16T17:27:29.346Z,15.50
2023-04-16T17:30:00.113Z,15.23
2023-04-16T17:32:30.217Z,17.13
2023-04-16T17:34:58.196Z,16.07
2023-04-16T17:37:26.241Z,16.13
2023-04-16T17:39:54.188Z,17.47
2023-04-16T17:42:22.090Z,17.27
2023-04-16T17:44:50.004Z,16.87
2023-04-16T17:47:17.840Z,16.10
2023-04-16T17:49:47.091Z,17.40
2023-04-16T17:52:14.976Z,15.83
2023-04-16T17:54:43.316Z,15.17
2023-04-16T17:57:11.320Z,14.43
2023-04-16T17:59:39.122Z,15.03
2023-04-16T18:02:07.350Z,16.17
2023-04-16T18:04:35.276Z,15.77
2023-04-16T18:07:04.607Z,15.23
2023-04-16T18:09:32.404Z,15.80
2023-04-16T18:12:00.319Z,15.87
2023-04-16T18:14:28.149Z,16.13
2023-04-16T18:16:56.041Z,14.97
2023-04-16T18:19:23.835Z,15.37
2023-04-16T18:21:51.758Z,15.97
2023-04-16T18:24:21.229Z,14.70
2023-04-16T18:26:49.117Z,16.83
2023-04-16T18:29:18.149Z,15.87
2023-04-16T18:31:47.864Z,16.17
2023-04-16T18:34:15.818Z,16.43
2023-04-16T18:36:44.981Z,15.50
2023-04-16T18:39:12.792Z,16.90
2023-04-16T18:41:42.533Z,18.13
2023-04-16T18:44:10.854Z,15.67
2023-04-16T18:46:38.674Z,16.37
2023-04-16T18:49:06.545Z,15.17
2023-04-16T18:51:34.388Z,16.30
2023-04-16T18:54:02.344Z,16.67
2023-04-16T18:56:30.935Z,15.30
2023-04-16T18:59:00.200Z,16.07
2023-04-16T19:01:28.099Z,16.00
2023-04-16T19:03:56.020Z,16.47
2023-04-16T19:06:23.905Z,16.07
2023-04-16T19:08:51.783Z,15.67
2023-04-16T19:11:19.674Z,16.10
2023-04-16T19:13:47.510Z,15.83
2023-04-16T19:16:16.892Z,15.53
2023-04-16T19:18:44.770Z,17.77
2023-04-16T19:21:12.636Z,20.80
2023-04-16T19:23:40.452Z,18.23
2023-04-16T19:26:08.272Z,17.63
2023-04-16T19:28:36.068Z,17.83
2023-04-16T19:31:03.936Z,18.97
2023-04-16T19:33:33.037Z,17.83
2023-04-16T19:36:01.663Z,17.30
2023-04-16T19:38:31.642Z,17.10
2023-04-16T19:40:59.808Z,16.47
2023-04-16T19:43:30.592Z,17.30
2023-04-16T19:45:58.924Z,16.70
2023-04-16T19:48:26.808Z,16.50
2023-04-16T19:50:56.035Z,16.83
2023-04-16T19:53:24.392Z,15.63
2023-04-16T19:55:52.426Z,17.03
2023-04-16T19:58:20.202Z,15.90
2023-04-16T20:00:48.210Z,15.80
2023-04-16T20:03:16.254Z,16.03
2023-04-16T20:05:44.136Z,16.47
2023-04-16T20:08:13.314Z,16.27
2023-04-16T20:10:41.170Z,16.53
2023-04-16T20:13:11.873Z,16.87
2023-04-16T20:15:39.776Z,16.60
2023-04-16T20:18:08.461Z,16.40
2023-04-16T20:20:37.715Z,16.33
2023-04-16T20:23:05.650Z,16.97
2023-04-16T20:25:34.913Z,16.93
2023-04-16T20:28:02.735Z,17.80
2023-04-16T20:30:38.467Z,17.70
2023-04-16T20:33:07.301Z,17.43
2023-04-16T20:35:35.885Z,17.43
2023-04-16T20:38:03.774Z,16.23
2023-04-16T20:40:31.584Z,17.10
2023-04-16T20:43:01.202Z,17.40
2023-04-16T20:45:32.214Z,17.10
2023-04-16T20:48:00.314Z,17.80
2023-04-16T20:50:28.760Z,17.53
2023-04-16T20:52:56.653Z,16.80
2023-04-16T20:55:24.473Z,17.07
2023-04-16T20:57:52.364Z,17.43
2023-04-16T21:00:22.318Z,16.73
2023-04-16T21:02:50.474Z,17.13
2023-04-16T21:05:21.189Z,17.57
2023-04-16T21:07:49.010Z,17.37
2023-04-16T21:10:19.959Z,17.90
2023-04-16T21:12:47.796Z,18.00
2023-04-16T21:15:15.729Z,18.37
2023-04-16T21:17:45.032Z,17.77
2023-04-16T21:20:13.966Z,17.17
2023-04-16T21:22:41.858Z,17.97
2023-04-16T21:25:10.828Z,17.17
2023-04-16T21:27:38.640Z,17.57
2023-04-16T21:30:07.709Z,18.30
2023-04-16T21:32:35.675Z,17.47
2023-04-16T21:35:05.664Z,18.73
2023-04-16T21:37:33.747Z,19.20
2023-04-16T21:40:01.796Z,16.43
2023-04-16T21:42:31.338Z,18.63
2023-04-16T21:44:59.683Z,20.13
2023-04-16T21:47:27.505Z,21.43
2023-04-16T21:49:55.398Z,22.23
2023-04-16T21:52:24.632Z,25.27
2023-04-16T21:54:52.654Z,19.07
2023-04-16T21:57:20.623Z,19.13
2023-04-16T21:59:48.513Z,18.90
2023-04-16T22:02:16.430Z,19.60
2023-04-16T22:04:44.340Z,17.97
2023-04-16T22:07:12.499Z,19.30
2023-04-16T22:09:42.173Z,18.40
2023-04-16T22:12:10.967Z,18.90
2023-04-16T22:14:46.221Z,17.97
2023-04-16T22:17:23.839Z,19.17
2023-04-16T22:19:53.389Z,19.10
2023-04-16T22:22:21.982Z,18.60
2023-04-16T22:24:51.339Z,19.60
2023-04-16T22:27:19.359Z,19.43
2023-04-16T22:29:47.158Z,19.33
2023-04-16T22:32:15.380Z,19.63
2023-04-16T22:34:43.205Z,20.03
2023-04-16T22:37:11.139Z,19.20
2023-04-16T22:39:39.021Z,20.03
2023-04-16T22:42:08.269Z,19.30
2023-04-16T22:44:37.353Z,20.13
2023-04-16T22:47:05.377Z,18.73
2023-04-16T22:49:33.305Z,19.40
2023-04-16T22:52:01.617Z,19.43
2023-04-16T22:54:29.764Z,18.80
2023-04-16T22:56:58.015Z,18.40
2023-04-16T22:59:27.249Z,19.27
2023-04-16T23:01:55.178Z,18.97
2023-04-16T23:04:23.110Z,19.07
2023-04-16T23:06:51.248Z,19.53
2023-04-16T23:09:20.389Z,19.00
2023-04-16T23:11:48.368Z,18.43
2023-04-16T23:14:16.908Z,18.00
2023-04-16T23:16:46.314Z,18.90
2023-04-16T23:19:15.585Z,18.67
2023-04-16T23:21:43.395Z,18.90
2023-04-16T23:24:11.259Z,20.10
2023-04-16T23:26:39.129Z,19.93
2023-04-16T23:29:07.089Z,17.90
2023-04-16T23:31:34.890Z,19.10
2023-04-16T23:34:04.196Z,19.77
2023-04-16T23:36:32.018Z,20.87
2023-04-16T23:38:59.858Z,21.00
2023-04-16T23:41:27.649Z,21.53
2023-04-16T23:43:55.500Z,21.13
2023-04-16T23:46:23.434Z,21.33
2023-04-16T23:48:52.558Z,20.43
2023-04-16T23:51:21.701Z,20.27
2023-04-16T23:53:49.583Z,20.33
2023-04-16T23:56:17.378Z,20.33
2023-04-16T23:58:45.240Z,19.97
